KEKQ

Wayne County Airport

Monticello, Kentucky, USA
METAR KEKQ 190856Z AUTO 04008KT 10SM CLR 15/14 A3002 RMK AO2 SLP177 6//// T01500144 56006
Observed Flight Rules
Jul-19 @ 08:56 UTC (45 minutes ago) Visual Flight Rules
Wind Visibility Clouds
40° at 8 knots 10 miles
  • Clear skies
Temperatures Readings
Current 15°C / 59°F
Dewpoint 14°C / 57°F
Humidity 94%
Altimeter 30.02" Hg
Pressure 1017.7 hPa
Elevation 294
METAR KEKQ 190856Z AUTO 04008KT 10SM CLR 15/14 A3002 RMK AO2 SLP177 6//// T01500144 56006
Observed Flight Rules
Jul-19 @ 08:56 UTC
(45 minutes ago)
VFR
Wind Visibility
40° at 8 knots 10 miles
Clouds
  • Clear skies
Temperature Dewpoint
15°C / 59°F 14°C / 57°F
Humidity Altimeter Pressure
94% 30.02" Hg 1017.7 hPa